createdAt,value
2017-09-25T00:00:44.181Z,993.24
2017-09-25T00:01:41.431Z,993.19
2017-09-25T00:02:38.969Z,993.20
2017-09-25T00:03:36.217Z,993.24
2017-09-25T00:04:33.469Z,993.21
2017-09-25T00:05:30.737Z,993.24
2017-09-25T00:06:27.957Z,993.34
2017-09-25T00:07:25.198Z,993.26
2017-09-25T00:08:22.409Z,993.25
2017-09-25T00:09:19.685Z,993.29
2017-09-25T00:10:16.918Z,993.32
2017-09-25T00:11:14.247Z,993.32
2017-09-25T00:12:11.474Z,993.26
2017-09-25T00:13:08.722Z,993.26
2017-09-25T00:14:05.991Z,993.28
2017-09-25T00:15:03.255Z,993.20
2017-09-25T00:16:00.485Z,993.28
2017-09-25T00:16:57.738Z,993.16
2017-09-25T00:17:54.950Z,993.24
2017-09-25T00:18:52.236Z,993.19
2017-09-25T00:19:49.493Z,993.23
2017-09-25T00:20:46.789Z,993.18
2017-09-25T00:21:44.018Z,993.13
2017-09-25T00:22:41.261Z,993.16
2017-09-25T00:23:38.485Z,993.17
2017-09-25T00:24:35.766Z,993.13
2017-09-25T00:25:32.998Z,993.09
2017-09-25T00:26:30.258Z,993.14
2017-09-25T00:27:27.554Z,993.08
2017-09-25T00:28:24.809Z,993.09
2017-09-25T00:29:22.074Z,993.11
2017-09-25T00:30:19.322Z,993.14
2017-09-25T00:31:16.559Z,993.14
2017-09-25T00:32:13.811Z,993.10
2017-09-25T00:33:11.044Z,993.11
2017-09-25T00:34:08.765Z,993.07
2017-09-25T00:35:06.648Z,993.08
2017-09-25T00:36:03.901Z,993.10
2017-09-25T00:37:03.178Z,993.06
2017-09-25T00:38:00.434Z,993.02
2017-09-25T00:38:57.675Z,993.00
2017-09-25T00:39:54.947Z,993.05
2017-09-25T00:40:52.190Z,993.01
2017-09-25T00:41:49.431Z,993.08
2017-09-25T00:42:46.645Z,992.94
2017-09-25T00:43:43.918Z,993.02
2017-09-25T00:44:41.156Z,993.05
2017-09-25T00:45:38.406Z,993.03
2017-09-25T00:46:35.626Z,993.00
2017-09-25T00:47:32.880Z,993.03
2017-09-25T00:48:30.095Z,992.96
2017-09-25T00:49:27.366Z,993.01
2017-09-25T00:50:24.629Z,992.93
2017-09-25T00:51:21.888Z,993.02
2017-09-25T00:52:19.109Z,992.93
2017-09-25T00:53:16.356Z,992.96
2017-09-25T00:54:13.594Z,992.96
2017-09-25T00:55:10.870Z,992.86
2017-09-25T00:56:08.122Z,992.92
2017-09-25T00:57:05.374Z,992.90
2017-09-25T00:58:02.625Z,992.90
2017-09-25T00:58:59.873Z,992.87
2017-09-25T00:59:57.147Z,992.86
2017-09-25T01:00:54.420Z,992.83
2017-09-25T01:01:51.708Z,992.84
2017-09-25T01:02:49.017Z,992.83
2017-09-25T01:03:46.251Z,992.84
2017-09-25T01:04:45.575Z,992.80
2017-09-25T01:05:42.850Z,992.87
2017-09-25T01:06:40.122Z,992.76
2017-09-25T01:07:37.364Z,992.83
2017-09-25T01:08:34.783Z,992.75
2017-09-25T01:09:32.002Z,992.77
2017-09-25T01:10:29.385Z,992.86
2017-09-25T01:11:26.761Z,992.80
2017-09-25T01:12:24.198Z,992.89
2017-09-25T01:13:21.416Z,992.80
2017-09-25T01:14:18.671Z,992.88
2017-09-25T01:15:15.961Z,992.88
2017-09-25T01:16:13.230Z,992.73
2017-09-25T01:17:10.449Z,992.86
2017-09-25T01:18:07.711Z,992.78
2017-09-25T01:19:04.989Z,992.79
2017-09-25T01:20:02.250Z,992.80
2017-09-25T01:20:59.481Z,992.75
2017-09-25T01:21:56.754Z,992.81
2017-09-25T01:22:54.513Z,992.78
2017-09-25T01:23:51.817Z,992.76
2017-09-25T01:24:51.103Z,992.76
2017-09-25T01:25:48.367Z,992.71
2017-09-25T01:26:45.606Z,992.80
2017-09-25T01:27:44.914Z,992.75
2017-09-25T01:28:42.151Z,992.72
2017-09-25T01:29:39.405Z,992.70
2017-09-25T01:30:36.650Z,992.75
2017-09-25T01:31:33.909Z,992.73
2017-09-25T01:32:31.169Z,992.70
2017-09-25T01:33:28.413Z,992.68
2017-09-25T01:34:25.621Z,992.76
2017-09-25T01:35:22.885Z,992.75
2017-09-25T01:36:20.139Z,992.71
2017-09-25T01:37:17.390Z,992.72
2017-09-25T01:38:14.616Z,992.79
2017-09-25T01:39:11.867Z,992.72
2017-09-25T01:40:09.101Z,992.73
2017-09-25T01:41:06.357Z,992.74
2017-09-25T01:42:03.605Z,992.72
2017-09-25T01:43:00.910Z,992.76
2017-09-25T01:43:58.145Z,992.68
2017-09-25T01:44:55.399Z,992.66
2017-09-25T01:45:52.641Z,992.75
2017-09-25T01:46:49.921Z,992.72
2017-09-25T01:47:47.144Z,992.73
2017-09-25T01:48:44.394Z,992.72
2017-09-25T01:49:41.675Z,992.75
2017-09-25T01:50:38.926Z,992.72
2017-09-25T01:51:36.149Z,992.74
2017-09-25T01:52:33.378Z,992.69
2017-09-25T01:53:30.602Z,992.68
2017-09-25T01:54:27.838Z,992.76
2017-09-25T01:55:25.074Z,992.71
2017-09-25T01:56:22.323Z,992.68
2017-09-25T01:57:19.549Z,992.68
2017-09-25T01:58:16.809Z,992.63
2017-09-25T01:59:14.034Z,992.57
2017-09-25T02:00:11.281Z,992.64
2017-09-25T02:01:08.512Z,992.62
2017-09-25T02:02:05.790Z,992.69
2017-09-25T02:03:03.027Z,992.63
2017-09-25T02:04:00.283Z,992.54
2017-09-25T02:04:57.498Z,992.56
2017-09-25T02:05:54.750Z,992.55
2017-09-25T02:06:54.050Z,992.54
2017-09-25T02:07:51.282Z,992.60
2017-09-25T02:08:48.525Z,992.56
2017-09-25T02:09:45.762Z,992.54
2017-09-25T02:10:42.981Z,992.49
2017-09-25T02:11:40.254Z,992.56
2017-09-25T02:12:37.491Z,992.52
2017-09-25T02:13:34.722Z,992.57
2017-09-25T02:14:31.960Z,992.50
2017-09-25T02:15:29.209Z,992.58
2017-09-25T02:16:26.413Z,992.55
2017-09-25T02:17:23.669Z,992.60
2017-09-25T02:18:20.886Z,992.55
2017-09-25T02:19:18.166Z,992.56
2017-09-25T02:20:15.384Z,992.53
2017-09-25T02:21:12.625Z,992.58
2017-09-25T02:22:09.878Z,992.54
2017-09-25T02:23:07.111Z,992.52
2017-09-25T02:24:04.523Z,992.55
2017-09-25T02:25:01.757Z,992.55
2017-09-25T02:25:59.005Z,992.58
2017-09-25T02:26:56.237Z,992.58
2017-09-25T02:27:53.462Z,992.59
2017-09-25T02:28:50.718Z,992.54
2017-09-25T02:29:47.941Z,992.51
2017-09-25T02:30:45.190Z,992.58
2017-09-25T02:31:42.422Z,992.56
2017-09-25T02:32:39.679Z,992.57
2017-09-25T02:33:36.889Z,992.59
2017-09-25T02:34:34.141Z,992.51
2017-09-25T02:35:31.362Z,992.62
2017-09-25T02:36:28.681Z,992.58
2017-09-25T02:37:25.938Z,992.55
2017-09-25T02:38:23.179Z,992.64
2017-09-25T02:39:20.441Z,992.65
2017-09-25T02:40:17.686Z,992.64
2017-09-25T02:41:14.893Z,992.52
2017-09-25T02:42:12.223Z,992.70
2017-09-25T02:43:09.488Z,992.51
2017-09-25T02:44:06.734Z,992.58
2017-09-25T02:45:03.972Z,992.59
2017-09-25T02:46:01.217Z,992.52
2017-09-25T02:46:58.425Z,992.54
2017-09-25T02:47:55.685Z,992.56
2017-09-25T02:48:52.899Z,992.54
2017-09-25T02:49:50.153Z,992.59
2017-09-25T02:50:47.357Z,992.53
2017-09-25T02:51:44.614Z,992.53
2017-09-25T02:52:41.842Z,992.60
2017-09-25T02:53:39.094Z,992.62
2017-09-25T02:54:36.309Z,992.51
2017-09-25T02:55:33.670Z,992.51
2017-09-25T02:56:30.902Z,992.55
2017-09-25T02:57:28.168Z,992.55
2017-09-25T02:58:25.410Z,992.51
2017-09-25T02:59:22.668Z,992.48
2017-09-25T03:00:19.868Z,992.56
2017-09-25T03:01:17.104Z,992.50
2017-09-25T03:02:14.314Z,992.49
2017-09-25T03:03:11.584Z,992.51
2017-09-25T03:04:08.799Z,992.55
2017-09-25T03:05:06.037Z,992.52
2017-09-25T03:06:03.629Z,992.54
2017-09-25T03:07:00.872Z,992.44
2017-09-25T03:07:58.101Z,992.47
2017-09-25T03:08:55.382Z,992.53
2017-09-25T03:09:52.601Z,992.42
2017-09-25T03:10:49.849Z,992.39
2017-09-25T03:11:47.067Z,992.37
2017-09-25T03:12:44.349Z,992.41
2017-09-25T03:13:41.594Z,992.40
2017-09-25T03:14:38.841Z,992.36
2017-09-25T03:15:36.075Z,992.36
2017-09-25T03:16:33.324Z,992.37
2017-09-25T03:17:30.565Z,992.39
2017-09-25T03:18:27.847Z,992.41
2017-09-25T03:19:25.073Z,992.42
2017-09-25T03:20:22.333Z,992.37
2017-09-25T03:21:19.559Z,992.38
2017-09-25T03:22:16.811Z,992.33
2017-09-25T03:23:14.069Z,992.35
2017-09-25T03:24:11.324Z,992.38
2017-09-25T03:25:08.546Z,992.26
2017-09-25T03:26:06.690Z,992.34
2017-09-25T03:27:03.910Z,992.36
2017-09-25T03:28:01.169Z,992.28
2017-09-25T03:28:58.443Z,992.31
2017-09-25T03:29:55.661Z,992.29
2017-09-25T03:30:52.875Z,992.23
2017-09-25T03:31:50.123Z,992.28
2017-09-25T03:32:47.360Z,992.34
2017-09-25T03:33:44.601Z,992.25
2017-09-25T03:34:41.860Z,992.26
2017-09-25T03:35:39.157Z,992.36
2017-09-25T03:36:36.414Z,992.22
2017-09-25T03:37:33.719Z,992.27
2017-09-25T03:38:31.010Z,992.28
2017-09-25T03:39:28.293Z,992.28
2017-09-25T03:40:25.499Z,992.24
2017-09-25T03:41:22.767Z,992.26
2017-09-25T03:42:19.998Z,992.27
2017-09-25T03:43:17.301Z,992.26
2017-09-25T03:44:14.534Z,992.18
2017-09-25T03:45:11.776Z,992.23
2017-09-25T03:46:09.016Z,992.21
2017-09-25T03:47:06.300Z,992.21
2017-09-25T03:48:03.505Z,992.24
2017-09-25T03:49:00.810Z,992.16
2017-09-25T03:49:58.044Z,992.27
2017-09-25T03:50:55.498Z,992.22
2017-09-25T03:51:52.826Z,992.18
2017-09-25T03:52:50.117Z,992.21
2017-09-25T03:53:47.334Z,992.13
2017-09-25T03:54:44.618Z,992.18
2017-09-25T03:55:41.847Z,992.14
2017-09-25T03:56:39.089Z,992.20
2017-09-25T03:57:36.320Z,992.17
2017-09-25T03:58:33.562Z,992.18
2017-09-25T03:59:30.805Z,992.20
2017-09-25T04:00:28.061Z,992.20
2017-09-25T04:01:25.280Z,992.18
2017-09-25T04:02:22.526Z,992.20
2017-09-25T04:03:19.762Z,992.25
2017-09-25T04:04:17.046Z,992.19
2017-09-25T04:05:14.274Z,992.24
2017-09-25T04:06:13.565Z,992.18
2017-09-25T04:07:10.773Z,992.17
2017-09-25T04:08:08.024Z,992.14
2017-09-25T04:09:07.381Z,992.13
2017-09-25T04:10:04.665Z,992.10
2017-09-25T04:11:01.901Z,992.20
2017-09-25T04:11:59.158Z,992.20
2017-09-25T04:12:56.389Z,992.19
2017-09-25T04:13:53.626Z,992.20
2017-09-25T04:14:50.873Z,992.17
2017-09-25T04:15:48.184Z,992.11
2017-09-25T04:16:45.512Z,992.14
2017-09-25T04:17:42.774Z,992.12
2017-09-25T04:18:39.993Z,992.14
2017-09-25T04:19:37.237Z,992.16
2017-09-25T04:20:34.481Z,992.08
2017-09-25T04:21:31.745Z,992.12
2017-09-25T04:22:28.968Z,992.06
2017-09-25T04:23:26.226Z,992.18
2017-09-25T04:24:23.430Z,992.14
2017-09-25T04:25:20.691Z,992.12
2017-09-25T04:26:17.978Z,992.12
2017-09-25T04:27:15.247Z,992.19
2017-09-25T04:28:12.490Z,992.21
2017-09-25T04:29:09.842Z,992.22
2017-09-25T04:30:07.077Z,992.25
2017-09-25T04:31:04.326Z,992.24
2017-09-25T04:32:01.546Z,992.21
2017-09-25T04:32:58.806Z,992.28
2017-09-25T04:33:56.030Z,992.23
2017-09-25T04:34:53.274Z,992.20
2017-09-25T04:35:52.575Z,992.24
2017-09-25T04:36:49.816Z,992.18
2017-09-25T04:37:47.045Z,992.24
2017-09-25T04:38:44.297Z,992.14
2017-09-25T04:39:41.507Z,992.18
2017-09-25T04:40:38.782Z,992.13
2017-09-25T04:41:36.797Z,992.13
2017-09-25T04:42:34.417Z,992.19
2017-09-25T04:43:31.645Z,992.22
2017-09-25T04:44:29.136Z,992.15
2017-09-25T04:45:26.361Z,992.20
2017-09-25T04:46:23.600Z,992.24
2017-09-25T04:47:20.817Z,992.19
2017-09-25T04:48:18.065Z,992.21
2017-09-25T04:49:15.287Z,992.24
2017-09-25T04:50:12.530Z,992.25
2017-09-25T04:51:09.770Z,992.27
2017-09-25T04:52:07.673Z,992.26
2017-09-25T04:53:04.885Z,992.25
2017-09-25T04:54:02.128Z,992.13
2017-09-25T04:54:59.349Z,992.21
2017-09-25T04:55:56.617Z,992.18
2017-09-25T04:56:53.833Z,992.22
2017-09-25T04:57:51.070Z,992.25
2017-09-25T04:58:48.287Z,992.19
2017-09-25T04:59:45.526Z,992.12
2017-09-25T05:00:42.831Z,992.15
2017-09-25T05:01:40.073Z,992.19
2017-09-25T05:02:37.288Z,992.10
2017-09-25T05:03:34.533Z,992.17
2017-09-25T05:04:31.766Z,992.17
2017-09-25T05:05:29.006Z,992.09
2017-09-25T05:06:26.939Z,992.14
2017-09-25T05:07:24.173Z,992.13
2017-09-25T05:08:21.427Z,992.11
2017-09-25T05:09:18.704Z,992.20
2017-09-25T05:10:15.932Z,992.11
2017-09-25T05:11:13.226Z,992.07
2017-09-25T05:12:10.437Z,992.07
2017-09-25T05:13:08.344Z,992.08
2017-09-25T05:14:06.101Z,992.13
2017-09-25T05:15:03.333Z,992.13
2017-09-25T05:16:00.537Z,992.10
2017-09-25T05:16:57.794Z,992.08
2017-09-25T05:17:54.998Z,992.14
2017-09-25T05:18:52.246Z,992.16
2017-09-25T05:19:49.480Z,992.09
2017-09-25T05:20:46.730Z,992.08
2017-09-25T05:21:43.975Z,992.16
2017-09-25T05:22:41.213Z,992.12
2017-09-25T05:23:38.454Z,992.05
2017-09-25T05:24:35.698Z,992.10
2017-09-25T05:25:32.910Z,992.12
2017-09-25T05:26:30.175Z,992.14
2017-09-25T05:27:28.299Z,992.12
2017-09-25T05:28:25.553Z,992.15
2017-09-25T05:29:22.787Z,992.09
2017-09-25T05:30:20.033Z,992.19
2017-09-25T05:31:17.260Z,992.12
2017-09-25T05:32:14.514Z,992.20
2017-09-25T05:33:11.734Z,992.14
2017-09-25T05:34:08.978Z,992.07
2017-09-25T05:35:06.206Z,992.14
2017-09-25T05:36:03.454Z,992.12
2017-09-25T05:37:00.709Z,992.15
2017-09-25T05:37:57.955Z,992.16
2017-09-25T05:38:55.200Z,992.09
2017-09-25T05:39:52.447Z,992.08
2017-09-25T05:40:49.681Z,992.07
2017-09-25T05:41:46.959Z,992.12
2017-09-25T05:42:44.170Z,992.11
2017-09-25T05:43:41.446Z,992.07
2017-09-25T05:44:38.690Z,992.12
2017-09-25T05:45:35.942Z,992.11
2017-09-25T05:46:33.161Z,992.13
2017-09-25T05:47:30.429Z,992.05
2017-09-25T05:48:27.669Z,992.08
2017-09-25T05:49:24.921Z,992.05
2017-09-25T05:50:22.162Z,992.07
2017-09-25T05:51:19.420Z,992.07
2017-09-25T05:52:16.659Z,992.03
2017-09-25T05:53:13.918Z,992.07
2017-09-25T05:54:11.125Z,992.14
2017-09-25T05:55:08.374Z,992.07
2017-09-25T05:56:05.605Z,992.09
2017-09-25T05:57:02.873Z,992.08
2017-09-25T05:58:00.097Z,992.02
2017-09-25T05:58:57.353Z,992.12
2017-09-25T05:59:54.574Z,992.10
2017-09-25T06:00:51.825Z,992.04
2017-09-25T06:01:49.061Z,992.08
2017-09-25T06:02:46.310Z,992.07
2017-09-25T06:03:43.562Z,992.11
2017-09-25T06:04:40.875Z,992.11
2017-09-25T06:05:38.105Z,992.11
2017-09-25T06:06:35.340Z,992.04
2017-09-25T06:07:32.569Z,992.09
2017-09-25T06:08:29.842Z,992.09
2017-09-25T06:09:27.090Z,992.03
2017-09-25T06:10:24.329Z,992.06
2017-09-25T06:11:21.549Z,992.13
2017-09-25T06:12:18.793Z,992.15
2017-09-25T06:13:16.029Z,992.07
2017-09-25T06:14:13.321Z,992.09
2017-09-25T06:15:12.610Z,992.13
2017-09-25T06:16:09.860Z,992.14
2017-09-25T06:17:07.084Z,992.09
2017-09-25T06:18:04.343Z,992.10
2017-09-25T06:19:01.594Z,992.04
2017-09-25T06:19:58.834Z,992.12
2017-09-25T06:20:56.066Z,992.03
2017-09-25T06:21:53.321Z,992.15
2017-09-25T06:22:50.553Z,992.07
2017-09-25T06:23:48.009Z,992.13
2017-09-25T06:24:45.249Z,992.13
2017-09-25T06:25:42.554Z,992.12
2017-09-25T06:26:39.778Z,992.13
2017-09-25T06:27:37.038Z,992.13
2017-09-25T06:28:34.266Z,992.08
2017-09-25T06:29:31.535Z,992.05
2017-09-25T06:30:28.770Z,992.07
2017-09-25T06:31:26.038Z,992.10
2017-09-25T06:32:23.253Z,992.11
2017-09-25T06:33:20.525Z,992.12
2017-09-25T06:34:17.774Z,992.09
2017-09-25T06:35:15.028Z,992.10
2017-09-25T06:36:12.241Z,992.15
2017-09-25T06:37:09.574Z,992.10
2017-09-25T06:38:06.791Z,992.12
2017-09-25T06:39:04.070Z,992.09
2017-09-25T06:40:01.294Z,992.08
2017-09-25T06:40:58.533Z,992.14
2017-09-25T06:41:55.774Z,992.14
2017-09-25T06:42:53.017Z,992.00
2017-09-25T06:43:50.246Z,992.10
2017-09-25T06:44:47.510Z,992.14
2017-09-25T06:45:44.726Z,992.12
2017-09-25T06:46:41.994Z,992.09
2017-09-25T06:47:39.206Z,992.09
2017-09-25T06:48:36.445Z,992.06
2017-09-25T06:49:33.698Z,992.11
2017-09-25T06:50:30.970Z,992.08
2017-09-25T06:51:28.187Z,992.08
2017-09-25T06:52:25.441Z,992.07
2017-09-25T06:53:22.692Z,992.10
2017-09-25T06:54:19.950Z,992.02
2017-09-25T06:55:17.190Z,992.01
2017-09-25T06:56:14.438Z,992.08
2017-09-25T06:57:11.688Z,992.07
2017-09-25T06:58:08.949Z,992.05
2017-09-25T06:59:06.178Z,992.06
2017-09-25T07:00:03.487Z,992.09
2017-09-25T07:01:00.714Z,992.09
2017-09-25T07:01:57.961Z,992.12
2017-09-25T07:02:55.209Z,992.15
2017-09-25T07:03:52.485Z,992.04
2017-09-25T07:04:49.778Z,992.18
2017-09-25T07:05:47.081Z,992.15
2017-09-25T07:06:44.304Z,992.15
2017-09-25T07:07:41.561Z,992.18
2017-09-25T07:08:38.787Z,992.10
2017-09-25T07:09:36.093Z,992.10
2017-09-25T07:10:33.334Z,992.13
2017-09-25T07:11:30.707Z,992.15
2017-09-25T07:12:27.939Z,992.15
2017-09-25T07:13:25.199Z,992.09
2017-09-25T07:14:22.421Z,992.20
2017-09-25T07:15:19.694Z,992.17
2017-09-25T07:16:16.946Z,992.11
2017-09-25T07:17:14.201Z,992.16
2017-09-25T07:18:11.446Z,992.17
2017-09-25T07:19:09.168Z,992.24
2017-09-25T07:20:06.423Z,992.14
2017-09-25T07:21:03.673Z,992.25
2017-09-25T07:22:00.917Z,992.18
2017-09-25T07:22:58.370Z,992.15
2017-09-25T07:23:55.634Z,992.16
2017-09-25T07:24:52.932Z,992.23
2017-09-25T07:25:50.162Z,992.14
2017-09-25T07:26:47.450Z,992.23
2017-09-25T07:27:44.803Z,992.22
2017-09-25T07:28:42.231Z,992.17
2017-09-25T07:29:39.484Z,992.21
2017-09-25T07:30:36.843Z,992.24
2017-09-25T07:31:34.148Z,992.19
2017-09-25T07:32:31.587Z,992.26
2017-09-25T07:33:28.831Z,992.23
2017-09-25T07:34:26.193Z,992.21
2017-09-25T07:35:23.617Z,992.20
2017-09-25T07:36:21.787Z,992.19
2017-09-25T07:37:19.850Z,992.27
2017-09-25T07:38:17.103Z,992.20
2017-09-25T07:39:15.469Z,992.23
2017-09-25T07:40:12.825Z,992.24
2017-09-25T07:41:11.579Z,992.18
2017-09-25T07:42:08.830Z,992.24
2017-09-25T07:43:06.049Z,992.19
2017-09-25T07:44:03.341Z,992.13
2017-09-25T07:45:00.568Z,992.19
2017-09-25T07:45:57.987Z,992.17
2017-09-25T07:46:55.335Z,992.22
2017-09-25T07:47:53.181Z,992.20
2017-09-25T07:48:50.411Z,992.30
2017-09-25T07:49:47.655Z,992.22
2017-09-25T07:50:44.906Z,992.13
2017-09-25T07:51:42.153Z,992.22
2017-09-25T07:52:39.390Z,992.18
2017-09-25T07:53:36.667Z,992.20
2017-09-25T07:54:33.924Z,992.18
2017-09-25T07:55:31.290Z,992.23
2017-09-25T07:56:28.862Z,992.17
2017-09-25T07:57:26.105Z,992.17
2017-09-25T07:58:23.346Z,992.18
2017-09-25T07:59:20.589Z,992.23
2017-09-25T08:00:17.805Z,992.17
2017-09-25T08:01:15.072Z,992.12
2017-09-25T08:02:12.320Z,992.19
2017-09-25T08:03:09.641Z,992.16
2017-09-25T08:04:07.154Z,992.11
2017-09-25T08:05:04.396Z,992.18
2017-09-25T08:06:01.626Z,992.09
2017-09-25T08:06:58.981Z,992.13
2017-09-25T08:07:56.193Z,992.12
2017-09-25T08:08:53.449Z,992.14
2017-09-25T08:09:50.675Z,992.09
2017-09-25T08:10:47.971Z,992.15
2017-09-25T08:11:45.202Z,992.12
2017-09-25T08:12:42.458Z,992.06
2017-09-25T08:13:39.686Z,992.11
2017-09-25T08:14:36.977Z,992.12
2017-09-25T08:15:34.185Z,992.06
2017-09-25T08:16:31.433Z,992.11
2017-09-25T08:17:28.890Z,992.11
2017-09-25T08:18:26.150Z,992.14
2017-09-25T08:19:23.389Z,992.10
2017-09-25T08:20:20.706Z,992.07
2017-09-25T08:21:17.941Z,992.11
2017-09-25T08:22:15.188Z,992.04
2017-09-25T08:23:12.410Z,992.04
2017-09-25T08:24:09.649Z,992.03
2017-09-25T08:25:06.845Z,992.07
2017-09-25T08:26:04.073Z,992.03
2017-09-25T08:27:01.323Z,992.02
2017-09-25T08:27:58.573Z,991.94
2017-09-25T08:28:55.809Z,991.98
2017-09-25T08:29:53.061Z,992.03
2017-09-25T08:30:50.281Z,991.97
2017-09-25T08:31:47.660Z,991.91
2017-09-25T08:32:44.881Z,991.95
2017-09-25T08:33:42.129Z,991.97
2017-09-25T08:34:39.350Z,992.00
2017-09-25T08:35:36.591Z,991.91
2017-09-25T08:36:33.833Z,991.96
2017-09-25T08:37:31.069Z,992.02
2017-09-25T08:38:28.323Z,991.93
2017-09-25T08:39:25.567Z,991.96
2017-09-25T08:40:22.801Z,992.00
2017-09-25T08:41:20.351Z,992.00
2017-09-25T08:42:17.589Z,991.93
2017-09-25T08:43:14.833Z,991.99
2017-09-25T08:44:12.062Z,991.95
2017-09-25T08:45:09.313Z,992.02
2017-09-25T08:46:06.533Z,991.97
2017-09-25T08:47:03.797Z,991.93
2017-09-25T08:48:01.448Z,991.97
2017-09-25T08:48:58.699Z,991.94
2017-09-25T08:49:55.938Z,991.93
2017-09-25T08:50:53.185Z,992.00
2017-09-25T08:51:50.424Z,991.96
2017-09-25T08:52:47.673Z,991.98
2017-09-25T08:53:44.894Z,992.02
2017-09-25T08:54:42.154Z,992.00
2017-09-25T08:55:39.378Z,992.00
2017-09-25T08:56:36.655Z,991.99
2017-09-25T08:57:33.866Z,992.01
2017-09-25T08:58:31.126Z,992.03
2017-09-25T08:59:28.427Z,991.95
2017-09-25T09:00:25.702Z,991.98
2017-09-25T09:01:22.918Z,991.95
2017-09-25T09:02:20.176Z,991.95
2017-09-25T09:03:17.401Z,991.92
2017-09-25T09:04:14.743Z,991.92
2017-09-25T09:05:11.959Z,991.96
2017-09-25T09:06:09.202Z,992.03
2017-09-25T09:07:06.451Z,991.99
2017-09-25T09:08:03.697Z,991.99
2017-09-25T09:09:00.944Z,991.96
2017-09-25T09:09:58.270Z,991.92
2017-09-25T09:10:55.506Z,992.04
2017-09-25T09:11:52.787Z,991.95
2017-09-25T09:12:50.010Z,991.99
2017-09-25T09:13:47.325Z,991.95
2017-09-25T09:14:44.566Z,992.02
2017-09-25T09:15:41.821Z,991.90
2017-09-25T09:16:39.061Z,991.99
2017-09-25T09:17:36.448Z,991.91
2017-09-25T09:18:33.682Z,991.94
2017-09-25T09:19:30.940Z,991.93
2017-09-25T09:20:28.194Z,991.93
2017-09-25T09:21:25.474Z,991.90
2017-09-25T09:22:22.735Z,991.97
2017-09-25T09:23:19.973Z,991.90
2017-09-25T09:24:17.182Z,991.87
2017-09-25T09:25:14.446Z,991.94
2017-09-25T09:26:11.653Z,991.93
2017-09-25T09:27:08.914Z,991.95
2017-09-25T09:28:06.158Z,991.96
2017-09-25T09:29:03.414Z,991.99
2017-09-25T09:30:00.652Z,992.00
2017-09-25T09:30:57.922Z,992.01
2017-09-25T09:31:55.138Z,991.98
2017-09-25T09:32:52.399Z,991.96
2017-09-25T09:33:49.615Z,991.92
2017-09-25T09:34:46.866Z,991.97
2017-09-25T09:35:44.107Z,991.95
2017-09-25T09:36:41.362Z,991.94
2017-09-25T09:37:38.622Z,991.98
2017-09-25T09:38:35.865Z,991.87
2017-09-25T09:39:33.081Z,991.90
2017-09-25T09:40:30.620Z,991.94
2017-09-25T09:41:28.285Z,991.89
2017-09-25T09:42:26.002Z,991.92
2017-09-25T09:43:23.673Z,991.92
2017-09-25T09:44:21.397Z,991.96
2017-09-25T09:45:19.053Z,991.89
2017-09-25T09:46:16.716Z,991.92
2017-09-25T09:47:14.225Z,991.86
2017-09-25T09:48:11.503Z,991.96
2017-09-25T09:49:08.748Z,991.96
2017-09-25T09:50:05.995Z,991.89
2017-09-25T09:51:03.209Z,991.93
2017-09-25T09:52:00.458Z,991.94
2017-09-25T09:52:57.691Z,991.92
2017-09-25T09:53:54.962Z,991.94
2017-09-25T09:54:52.170Z,991.87
2017-09-25T09:55:49.414Z,991.94
2017-09-25T09:56:46.626Z,991.91
2017-09-25T09:57:43.878Z,991.92
2017-09-25T09:58:41.185Z,991.91
2017-09-25T09:59:38.427Z,991.87
2017-09-25T10:00:35.653Z,991.86
2017-09-25T10:01:32.899Z,991.89
2017-09-25T10:02:30.139Z,991.76
2017-09-25T10:03:27.426Z,991.84
2017-09-25T10:04:24.654Z,991.88
2017-09-25T10:05:22.082Z,991.86
2017-09-25T10:06:19.302Z,991.82
2017-09-25T10:07:16.558Z,991.85
2017-09-25T10:08:13.807Z,991.86
2017-09-25T10:09:11.069Z,991.80
2017-09-25T10:10:08.280Z,991.78
2017-09-25T10:11:05.542Z,991.80
2017-09-25T10:12:02.764Z,991.75
2017-09-25T10:13:05.250Z,991.74
2017-09-25T10:14:02.573Z,991.74
2017-09-25T10:14:59.810Z,991.83
2017-09-25T10:15:57.129Z,991.78
2017-09-25T10:16:54.354Z,991.65
2017-09-25T10:17:51.605Z,991.74
2017-09-25T10:18:48.858Z,991.67
2017-09-25T10:19:46.102Z,991.70
2017-09-25T10:20:43.310Z,991.70
2017-09-25T10:21:40.561Z,991.69
2017-09-25T10:22:37.778Z,991.68
2017-09-25T10:23:35.106Z,991.77
2017-09-25T10:24:32.350Z,991.71
2017-09-25T10:25:29.598Z,991.71
2017-09-25T10:26:26.826Z,991.61
2017-09-25T10:27:24.053Z,991.67
2017-09-25T10:28:21.262Z,991.59
2017-09-25T10:29:18.540Z,991.63
2017-09-25T10:30:15.773Z,991.53
2017-09-25T10:31:13.009Z,991.59
2017-09-25T10:32:10.241Z,991.60
2017-09-25T10:33:07.587Z,991.58
2017-09-25T10:34:04.841Z,991.55
2017-09-25T10:35:02.206Z,991.59
2017-09-25T10:35:59.446Z,991.63
2017-09-25T10:36:56.698Z,991.61
2017-09-25T10:37:53.910Z,991.62
2017-09-25T10:38:51.154Z,991.60
2017-09-25T10:39:48.384Z,991.59
2017-09-25T10:40:45.613Z,991.59
2017-09-25T10:41:42.829Z,991.61
2017-09-25T10:42:40.078Z,991.60
2017-09-25T10:43:37.302Z,991.60
2017-09-25T10:44:34.569Z,991.66
2017-09-25T10:45:31.834Z,991.64
2017-09-25T10:46:29.377Z,991.67
2017-09-25T10:47:26.593Z,991.62
2017-09-25T10:48:23.826Z,991.64
2017-09-25T10:49:21.063Z,991.62
2017-09-25T10:50:18.345Z,991.65
2017-09-25T10:51:15.589Z,991.68
2017-09-25T10:52:12.832Z,991.71
2017-09-25T10:53:10.068Z,991.60
2017-09-25T10:54:07.435Z,991.56
2017-09-25T10:55:04.699Z,991.59
2017-09-25T10:56:01.947Z,991.53
2017-09-25T10:56:59.182Z,991.60
2017-09-25T10:57:56.421Z,991.60
2017-09-25T10:58:53.646Z,991.63
2017-09-25T10:59:50.934Z,991.50
2017-09-25T11:00:48.154Z,991.59
2017-09-25T11:01:45.410Z,991.57
2017-09-25T11:02:42.618Z,991.65
2017-09-25T11:03:39.870Z,991.62
2017-09-25T11:04:37.126Z,991.66
2017-09-25T11:05:34.358Z,991.59
2017-09-25T11:06:31.575Z,991.64
2017-09-25T11:07:28.831Z,991.58
2017-09-25T11:08:26.084Z,991.65
2017-09-25T11:09:23.330Z,991.54
2017-09-25T11:10:20.573Z,991.58
2017-09-25T11:11:17.933Z,991.58
2017-09-25T11:12:15.162Z,991.63
2017-09-25T11:13:12.438Z,991.60
2017-09-25T11:14:09.685Z,991.60
2017-09-25T11:15:06.960Z,991.55
2017-09-25T11:16:04.210Z,991.50
2017-09-25T11:17:01.469Z,991.56
2017-09-25T11:17:58.686Z,991.58
2017-09-25T11:18:55.933Z,991.51
2017-09-25T11:19:53.165Z,991.48
2017-09-25T11:20:50.517Z,991.53
2017-09-25T11:21:47.770Z,991.52
2017-09-25T11:22:45.014Z,991.50
2017-09-25T11:23:42.217Z,991.51
2017-09-25T11:24:39.474Z,991.49
2017-09-25T11:25:36.715Z,991.45
2017-09-25T11:26:33.958Z,991.36
2017-09-25T11:27:31.181Z,991.44
2017-09-25T11:28:28.461Z,991.50
2017-09-25T11:29:25.689Z,991.51
2017-09-25T11:30:22.983Z,991.43
2017-09-25T11:31:20.246Z,991.46
2017-09-25T11:32:17.488Z,991.40
2017-09-25T11:33:14.709Z,991.49
2017-09-25T11:34:11.954Z,991.41
2017-09-25T11:35:09.166Z,991.42
2017-09-25T11:36:06.568Z,991.39
2017-09-25T11:37:03.800Z,991.44
2017-09-25T11:38:01.045Z,991.43
2017-09-25T11:38:58.292Z,991.44
2017-09-25T11:39:55.562Z,991.40
2017-09-25T11:40:52.844Z,991.38
2017-09-25T11:41:50.096Z,991.39
2017-09-25T11:42:47.314Z,991.42
2017-09-25T11:43:44.576Z,991.38
2017-09-25T11:44:41.796Z,991.33
2017-09-25T11:45:39.078Z,991.38
2017-09-25T11:46:36.309Z,991.30
2017-09-25T11:47:33.588Z,991.38
2017-09-25T11:48:30.813Z,991.35
2017-09-25T11:49:28.073Z,991.38
2017-09-25T11:50:25.333Z,991.34
2017-09-25T11:51:22.617Z,991.34
2017-09-25T11:52:19.845Z,991.34
2017-09-25T11:53:17.087Z,991.37
2017-09-25T11:54:14.331Z,991.30
2017-09-25T11:55:11.714Z,991.29